Time,TemperatureF,DewpointF,PressureIn,WindDirection,WindDirectionDegrees,WindSpeedMPH,WindSpeedGustMPH,Humidity,HourlyPrecipIn,Conditions,Clouds,dailyrainin,SoftwareType,DateUTC
2013-11-06 00:08:00,30.9,30.4,30.47,NW,315,0.0,-999.0,98,-99.99,,,0.00,Acu-Link.com,2013-11-06 05:08:00,
2013-11-06 00:23:00,31.1,30.6,30.47,WNW,292,0.0,-999.0,98,-99.99,,,0.00,Acu-Link.com,2013-11-06 05:23:00,
2013-11-06 00:38:00,31.1,30.6,30.47,WNW,292,0.0,-999.0,98,-99.99,,,0.00,Acu-Link.com,2013-11-06 05:38:00,
2013-11-06 00:53:00,31.1,30.6,30.46,SSW,202,0.0,-999.0,98,-99.99,,,0.00,Acu-Link.com,2013-11-06 05:53:00,
2013-11-06 01:10:00,31.1,30.6,30.45,NW,315,0.0,-999.0,98,-99.99,,,0.00,Acu-Link.com,2013-11-06 06:10:00,
2013-11-06 01:25:00,31.1,30.6,30.45,WNW,292,0.0,-999.0,98,-99.99,,,0.00,Acu-Link.com,2013-11-06 06:25:00,
2013-11-06 01:40:00,30.9,30.4,30.45,WNW,292,0.0,-999.0,98,-99.99,,,0.00,Acu-Link.com,2013-11-06 06:40:00,
2013-11-06 01:55:00,30.4,29.9,30.46,NW,315,0.0,-999.0,98,-99.99,,,0.00,Acu-Link.com,2013-11-06 06:55:00,
2013-11-06 02:10:00,30.2,29.7,30.45,SW,225,0.0,-999.0,98,-99.99,,,0.00,Acu-Link.com,2013-11-06 07:10:00,
2013-11-06 02:25:00,30.0,29.5,30.44,NW,315,0.0,-999.0,98,-99.99,,,0.00,Acu-Link.com,2013-11-06 07:25:00,
2013-11-06 02:40:00,29.5,29.0,30.43,NW,315,0.0,-999.0,98,-99.99,,,0.00,Acu-Link.com,2013-11-06 07:40:00,
2013-11-06 02:56:00,29.3,28.8,30.42,WNW,292,0.0,-999.0,98,-99.99,,,0.00,Acu-Link.com,2013-11-06 07:56:00,
2013-11-06 03:11:00,29.3,28.8,30.43,NW,315,0.0,-999.0,98,-99.99,,,0.00,Acu-Link.com,2013-11-06 08:11:00,
2013-11-06 03:26:00,29.3,28.8,30.41,WNW,292,0.0,-999.0,98,-99.99,,,0.00,Acu-Link.com,2013-11-06 08:26:00,
2013-11-06 03:42:00,29.1,28.6,30.42,WNW,292,0.0,-999.0,98,-99.99,,,0.00,Acu-Link.com,2013-11-06 08:42:00,
2013-11-06 03:57:00,28.9,28.4,30.41,WNW,292,0.0,-999.0,98,-99.99,,,0.00,Acu-Link.com,2013-11-06 08:57:00,
2013-11-06 04:12:00,28.8,28.3,30.42,NW,315,0.0,-999.0,98,-99.99,,,0.00,Acu-Link.com,2013-11-06 09:12:00,
2013-11-06 04:27:00,28.8,28.3,30.41,NNW,337,0.0,-999.0,98,-99.99,,,0.00,Acu-Link.com,2013-11-06 09:27:00,
2013-11-06 04:43:00,28.6,28.1,30.40,NNW,337,0.0,-999.0,98,-99.99,,,0.00,Acu-Link.com,2013-11-06 09:43:00,
2013-11-06 04:58:00,28.4,27.9,30.40,NW,315,0.0,-999.0,98,-99.99,,,0.00,Acu-Link.com,2013-11-06 09:58:00,
2013-11-06 05:13:00,28.4,27.9,30.41,WNW,292,0.0,-999.0,98,-99.99,,,0.00,Acu-Link.com,2013-11-06 10:13:00,
2013-11-06 05:28:00,28.2,27.7,30.40,WNW,292,0.0,-999.0,98,-99.99,,,0.00,Acu-Link.com,2013-11-06 10:28:00,
2013-11-06 05:44:00,28.0,27.5,30.39,WNW,292,0.0,-999.0,98,-99.99,,,0.00,Acu-Link.com,2013-11-06 10:44:00,
2013-11-06 05:59:00,27.9,27.4,30.40,WNW,292,0.0,-999.0,98,-99.99,,,0.00,Acu-Link.com,2013-11-06 10:59:00,
2013-11-06 06:14:00,27.9,27.4,30.39,WNW,292,0.0,-999.0,98,-99.99,,,0.00,Acu-Link.com,2013-11-06 11:14:00,
2013-11-06 06:29:00,27.9,27.4,30.39,WNW,292,0.0,-999.0,98,-99.99,,,0.00,Acu-Link.com,2013-11-06 11:29:00,
2013-11-06 06:44:00,27.7,27.2,30.39,WNW,292,0.0,-999.0,98,-99.99,,,0.00,Acu-Link.com,2013-11-06 11:44:00,
2013-11-06 07:00:00,28.4,27.9,30.37,WNW,292,0.0,-999.0,98,-99.99,,,0.00,Acu-Link.com,2013-11-06 12:00:00,
2013-11-06 07:15:00,28.9,28.4,30.37,WNW,292,0.0,-999.0,98,-99.99,,,0.00,Acu-Link.com,2013-11-06 12:15:00,
2013-11-06 07:30:00,30.0,29.5,30.37,SSW,202,0.0,-999.0,98,-99.99,,,0.00,Acu-Link.com,2013-11-06 12:30:00,
2013-11-06 07:45:00,30.6,30.1,30.37,SSW,202,0.0,-999.0,98,-99.99,,,0.00,Acu-Link.com,2013-11-06 12:45:00,
2013-11-06 08:00:00,30.9,30.4,30.36,SE,135,0.0,-999.0,98,-99.99,,,0.00,Acu-Link.com,2013-11-06 13:00:00,
2013-11-06 08:15:00,32.4,31.9,30.36,SW,225,0.0,-999.0,98,-99.99,,,0.00,Acu-Link.com,2013-11-06 13:15:00,
2013-11-06 08:31:00,33.6,33.1,30.36,NW,315,0.0,-999.0,98,-99.99,,,0.00,Acu-Link.com,2013-11-06 13:31:00,
2013-11-06 08:46:00,36.0,35.5,30.36,SE,135,0.0,-999.0,98,-99.99,,,0.00,Acu-Link.com,2013-11-06 13:46:00,
2013-11-06 09:01:00,36.3,35.8,30.35,ESE,112,0.0,-999.0,98,-99.99,,,0.00,Acu-Link.com,2013-11-06 14:01:00,
2013-11-06 09:17:00,37.0,36.5,30.34,SSW,202,0.0,-999.0,98,-99.99,,,0.00,Acu-Link.com,2013-11-06 14:17:00,
2013-11-06 09:32:00,39.2,38.7,30.33,East,90,0.0,-999.0,98,-99.99,,,0.00,Acu-Link.com,2013-11-06 14:32:00,
2013-11-06 09:47:00,39.9,39.4,30.32,WSW,247,0.0,-999.0,98,-99.99,,,0.00,Acu-Link.com,2013-11-06 14:47:00,
2013-11-06 10:02:00,40.3,39.8,30.32,West,270,0.0,-999.0,98,-99.99,,,0.00,Acu-Link.com,2013-11-06 15:02:00,
2013-11-06 10:17:00,40.5,40.0,30.31,ESE,112,0.0,-999.0,98,-99.99,,,0.00,Acu-Link.com,2013-11-06 15:17:00,
2013-11-06 10:32:00,41.0,40.5,30.31,East,90,0.0,-999.0,98,-99.99,,,0.00,Acu-Link.com,2013-11-06 15:32:00,
2013-11-06 10:48:00,41.7,41.2,30.30,ESE,112,0.0,-999.0,98,-99.99,,,0.00,Acu-Link.com,2013-11-06 15:48:00,
2013-11-06 11:03:00,42.3,41.8,30.29,SW,225,0.0,-999.0,98,-99.99,,,0.00,Acu-Link.com,2013-11-06 16:03:00,
2013-11-06 11:18:00,42.4,41.9,30.27,ESE,112,0.0,-999.0,98,-99.99,,,0.00,Acu-Link.com,2013-11-06 16:18:00,
2013-11-06 11:33:00,44.8,43.7,30.26,ESE,112,1.7,-999.0,96,-99.99,,,0.00,Acu-Link.com,2013-11-06 16:33:00,
2013-11-06 11:48:00,45.9,44.5,30.25,SSE,157,1.7,-999.0,95,-99.99,,,0.00,Acu-Link.com,2013-11-06 16:48:00,
2013-11-06 12:03:00,46.0,44.9,30.24,SW,225,0.0,-999.0,96,-99.99,,,0.00,Acu-Link.com,2013-11-06 17:03:00,
2013-11-06 12:18:00,47.1,45.7,30.22,WNW,292,1.1,-999.0,95,-99.99,,,0.00,Acu-Link.com,2013-11-06 17:18:00,
2013-11-06 12:34:00,48.2,47.1,30.22,SE,135,1.1,-999.0,96,-99.99,,,0.00,Acu-Link.com,2013-11-06 17:34:00,
2013-11-06 12:49:00,50.4,47.9,30.21,East,90,0.0,-999.0,91,-99.99,,,0.00,Acu-Link.com,2013-11-06 17:49:00,
2013-11-06 13:04:00,51.1,48.9,30.19,West,270,0.0,-999.0,92,-99.99,,,0.00,Acu-Link.com,2013-11-06 18:04:00,
2013-11-06 13:19:00,52.2,49.4,30.18,ESE,112,0.0,-999.0,90,-99.99,,,0.00,Acu-Link.com,2013-11-06 18:19:00,
2013-11-06 13:35:00,52.2,49.7,30.19,North,0,0.0,-999.0,91,-99.99,,,0.00,Acu-Link.com,2013-11-06 18:35:00,
2013-11-06 13:50:00,51.4,50.9,30.17,NNE,22,1.1,-999.0,98,-99.99,,,0.00,Acu-Link.com,2013-11-06 18:50:00,
2013-11-06 14:05:00,52.3,51.5,30.17,NW,315,1.1,-999.0,97,-99.99,,,0.00,Acu-Link.com,2013-11-06 19:05:00,
2013-11-06 14:20:00,53.4,52.0,30.16,South,180,1.1,-999.0,95,-99.99,,,0.00,Acu-Link.com,2013-11-06 19:20:00,
2013-11-06 14:36:00,53.2,50.0,30.17,SSE,157,1.7,-999.0,89,-99.99,,,0.00,Acu-Link.com,2013-11-06 19:36:00,
2013-11-06 14:51:00,52.7,50.1,30.16,ESE,112,1.1,-999.0,91,-99.99,,,0.00,Acu-Link.com,2013-11-06 19:51:00,
2013-11-06 15:06:00,52.2,51.4,30.15,West,270,1.1,-999.0,97,-99.99,,,0.00,Acu-Link.com,2013-11-06 20:06:00,
2013-11-06 15:21:00,51.4,50.9,30.16,NNE,22,0.0,-999.0,98,-99.99,,,0.00,Acu-Link.com,2013-11-06 20:21:00,
2013-11-06 15:36:00,50.4,49.9,30.16,West,270,0.0,-999.0,98,-99.99,,,0.00,Acu-Link.com,2013-11-06 20:36:00,
2013-11-06 15:52:00,49.5,49.0,30.15,NW,315,0.0,-999.0,98,-99.99,,,0.00,Acu-Link.com,2013-11-06 20:52:00,
2013-11-06 16:07:00,48.2,47.7,30.14,WNW,292,0.0,-999.0,98,-99.99,,,0.00,Acu-Link.com,2013-11-06 21:07:00,
2013-11-06 16:22:00,46.8,46.3,30.14,North,0,0.0,-999.0,98,-99.99,,,0.00,Acu-Link.com,2013-11-06 21:22:00,
2013-11-06 16:37:00,46.0,45.5,30.14,North,0,0.0,-999.0,98,-99.99,,,0.00,Acu-Link.com,2013-11-06 21:37:00,
2013-11-06 16:53:00,46.0,45.5,30.13,NNW,337,0.0,-999.0,98,-99.99,,,0.00,Acu-Link.com,2013-11-06 21:53:00,
2013-11-06 17:08:00,46.0,45.5,30.13,NNW,337,0.0,-999.0,98,-99.99,,,0.00,Acu-Link.com,2013-11-06 22:08:00,
2013-11-06 17:23:00,46.0,45.5,30.13,East,90,0.0,-999.0,98,-99.99,,,0.00,Acu-Link.com,2013-11-06 22:23:00,
2013-11-06 17:38:00,45.7,45.2,30.13,NNE,22,0.0,-999.0,98,-99.99,,,0.00,Acu-Link.com,2013-11-06 22:38:00,
2013-11-06 17:53:00,45.3,44.8,30.12,ESE,112,0.0,-999.0,98,-99.99,,,0.00,Acu-Link.com,2013-11-06 22:53:00,
2013-11-06 18:09:00,45.0,44.5,30.11,NW,315,0.0,-999.0,98,-99.99,,,0.00,Acu-Link.com,2013-11-06 23:09:00,
2013-11-06 18:24:00,44.6,44.1,30.11,NE,45,0.0,-999.0,98,-99.99,,,0.00,Acu-Link.com,2013-11-06 23:24:00,
2013-11-06 18:39:00,44.1,43.6,30.10,North,0,0.0,-999.0,98,-99.99,,,0.00,Acu-Link.com,2013-11-06 23:39:00,
2013-11-06 18:55:00,43.9,43.4,30.10,WNW,292,0.0,-999.0,98,-99.99,,,0.00,Acu-Link.com,2013-11-06 23:55:00,
2013-11-06 19:10:00,43.7,43.2,30.06,WNW,292,1.1,-999.0,98,-99.99,,,0.00,Acu-Link.com,2013-11-07 00:10:00,
2013-11-06 19:25:00,43.3,42.8,30.07,WNW,292,0.0,-999.0,98,-99.99,,,0.00,Acu-Link.com,2013-11-07 00:25:00,
2013-11-06 19:40:00,43.0,42.5,30.05,West,270,0.0,-999.0,98,-99.99,,,0.00,Acu-Link.com,2013-11-07 00:40:00,
2013-11-06 19:56:00,42.8,42.3,30.05,West,270,0.0,-999.0,98,-99.99,,,0.00,Acu-Link.com,2013-11-07 00:56:00,
2013-11-06 20:11:00,42.6,42.1,30.04,NNE,22,0.0,-999.0,98,-99.99,,,0.00,Acu-Link.com,2013-11-07 01:11:00,
2013-11-06 20:26:00,42.4,41.9,30.03,ENE,67,0.0,-999.0,98,-99.99,,,0.00,Acu-Link.com,2013-11-07 01:26:00,
2013-11-06 20:41:00,42.1,41.6,30.02,ENE,67,0.0,-999.0,98,-99.99,,,0.00,Acu-Link.com,2013-11-07 01:41:00,
2013-11-06 20:56:00,42.1,41.6,30.01,North,0,1.1,-999.0,98,-99.99,,,0.00,Acu-Link.com,2013-11-07 01:56:00,
2013-11-06 21:12:00,41.7,41.2,30.02,NW,315,0.0,-999.0,98,-99.99,,,0.00,Acu-Link.com,2013-11-07 02:12:00,
2013-11-06 21:28:00,41.5,41.0,30.00,North,0,1.1,-999.0,98,-99.99,,,0.00,Acu-Link.com,2013-11-07 02:28:00,
2013-11-06 21:43:00,41.7,41.2,30.00,NNE,22,0.0,-999.0,98,-99.99,,,0.00,Acu-Link.com,2013-11-07 02:43:00,
2013-11-06 21:58:00,41.7,41.2,29.99,NNE,22,0.0,-999.0,98,-99.99,,,0.00,Acu-Link.com,2013-11-07 02:58:00,
2013-11-06 22:13:00,41.5,41.0,29.98,NW,315,0.0,-999.0,98,-99.99,,,0.00,Acu-Link.com,2013-11-07 03:13:00,
2013-11-06 22:28:00,41.5,41.0,29.97,NW,315,0.0,-999.0,98,-99.99,,,0.00,Acu-Link.com,2013-11-07 03:28:00,
2013-11-06 22:44:00,41.5,41.0,29.96,ENE,67,0.0,-999.0,98,-99.99,,,0.00,Acu-Link.com,2013-11-07 03:44:00,
2013-11-06 22:59:00,41.5,41.0,29.95,NNW,337,0.0,-999.0,98,-99.99,,,0.00,Acu-Link.com,2013-11-07 03:59:00,
2013-11-06 23:14:00,41.5,41.0,29.93,East,90,1.7,-999.0,98,-99.99,,,0.00,Acu-Link.com,2013-11-07 04:14:00,
2013-11-06 23:29:00,41.5,41.0,29.94,East,90,0.0,-999.0,98,-99.99,,,0.00,Acu-Link.com,2013-11-07 04:29:00,
2013-11-06 23:44:00,41.5,41.0,29.93,WNW,292,1.1,-999.0,98,-99.99,,,0.00,Acu-Link.com,2013-11-07 04:44:00,